Wildwood, Canada
Current Conditions -  °F | °C
As of 10:00 AM on Sunday 21 Dec 2014 (Local Time) from CYZU Reporting Station
Light Snow Light Snow  
Wind Chill: 11°   Ceiling: 7000
Heat Index: 18°   Visibility: 1.5mi
Dew Point: 16°   Wind: 5mph
Humidity: 93%   Direction: 270°W
Pressure: 29.34"   Gusts: NA
Location:  53.62°N, 115.25°W
Report Text: CYZU 211700Z 27004KT 1 1/2SM -SN SCT025 BKN070 M08/M09 A2934 RMK SC4AC3 /S02/ SLP982
Loading
Personal Weather Stations






























Interactive Weather Map New forecast layout! Learn more

10-Day Weather Forecast

Advertisements
Track Severe Weather on mobile